createdAt,value
2023-02-17T00:01:13.714Z,5.45
2023-02-17T00:03:41.583Z,5.42
2023-02-17T00:06:10.306Z,5.45
2023-02-17T00:08:38.291Z,5.49
2023-02-17T00:11:06.490Z,5.50
2023-02-17T00:13:34.589Z,5.50
2023-02-17T00:16:08.851Z,5.46
2023-02-17T00:18:37.018Z,5.49
2023-02-17T00:21:15.619Z,5.49
2023-02-17T00:23:44.036Z,5.50
2023-02-17T00:26:12.001Z,5.53
2023-02-17T00:28:39.847Z,5.58
2023-02-17T00:31:12.766Z,5.56
2023-02-17T00:33:40.726Z,5.55
2023-02-17T00:36:10.072Z,5.53
2023-02-17T00:38:37.937Z,5.57
2023-02-17T00:41:05.982Z,5.58
2023-02-17T00:43:33.752Z,5.60
2023-02-17T00:46:01.618Z,5.61
2023-02-17T00:48:29.472Z,5.60
2023-02-17T00:50:57.349Z,5.61
2023-02-17T00:53:25.172Z,5.65
2023-02-17T00:55:52.983Z,5.65
2023-02-17T00:58:20.966Z,5.65
2023-02-17T01:00:48.784Z,5.68
2023-02-17T01:03:16.587Z,5.70
2023-02-17T01:05:45.181Z,5.68
2023-02-17T01:08:13.094Z,5.68
2023-02-17T01:10:41.461Z,5.69
2023-02-17T01:13:09.487Z,5.71
2023-02-17T01:15:43.600Z,5.71
2023-02-17T01:18:11.348Z,5.71
2023-02-17T01:20:39.618Z,5.70
2023-02-17T01:23:07.795Z,5.71
2023-02-17T01:25:53.532Z,5.71
2023-02-17T01:28:22.097Z,5.70
2023-02-17T01:30:50.291Z,5.69
2023-02-17T01:33:18.414Z,5.67
2023-02-17T01:35:46.186Z,5.67
2023-02-17T01:38:13.908Z,5.68
2023-02-17T01:40:49.124Z,5.70
2023-02-17T01:43:18.301Z,5.71
2023-02-17T01:45:53.079Z,5.71
2023-02-17T01:48:23.753Z,5.71
2023-02-17T01:50:57.007Z,5.70
2023-02-17T01:53:28.762Z,5.73
2023-02-17T01:55:56.649Z,5.72
2023-02-17T01:58:24.733Z,5.73
2023-02-17T02:00:53.290Z,5.74
2023-02-17T02:03:21.228Z,5.76
2023-02-17T02:05:49.088Z,5.76
2023-02-17T02:08:16.911Z,5.79
2023-02-17T02:10:44.597Z,5.78
2023-02-17T02:13:12.399Z,5.80
2023-02-17T02:15:51.006Z,5.80
2023-02-17T02:18:33.561Z,5.81
2023-02-17T02:21:10.088Z,5.93
2023-02-17T02:24:08.502Z,5.96
2023-02-17T02:27:20.890Z,6.06
2023-02-17T02:30:14.976Z,6.11
2023-02-17T02:33:02.957Z,6.12
2023-02-17T02:36:01.240Z,6.13
2023-02-17T02:38:48.228Z,6.14
2023-02-17T02:41:25.027Z,6.17
2023-02-17T02:43:53.458Z,6.17
2023-02-17T02:46:21.220Z,6.26
2023-02-17T02:48:48.961Z,6.38
2023-02-17T02:51:29.265Z,6.53
2023-02-17T02:54:09.958Z,6.66
2023-02-17T02:56:37.873Z,6.85
2023-02-17T02:59:20.847Z,6.94
2023-02-17T03:02:13.558Z,7.06
2023-02-17T03:04:47.594Z,7.20
2023-02-17T03:07:22.310Z,7.28
2023-02-17T03:09:54.159Z,7.39
2023-02-17T03:12:22.270Z,7.43
2023-02-17T03:14:51.617Z,7.42
2023-02-17T03:17:19.486Z,7.43
2023-02-17T03:19:48.871Z,7.47
2023-02-17T03:22:23.498Z,7.50
2023-02-17T03:24:51.367Z,7.51
2023-02-17T03:27:19.373Z,7.52
2023-02-17T03:29:47.140Z,7.51
2023-02-17T03:32:15.022Z,7.54
2023-02-17T03:34:42.851Z,7.54
2023-02-17T03:37:10.565Z,7.52
2023-02-17T03:39:38.458Z,7.51
2023-02-17T03:42:06.385Z,7.55
2023-02-17T03:44:34.260Z,7.54
2023-02-17T03:47:02.086Z,7.55
2023-02-17T03:49:30.010Z,7.64
2023-02-17T03:51:59.285Z,7.71
2023-02-17T03:54:27.889Z,7.90
2023-02-17T03:56:55.619Z,7.92
2023-02-17T03:59:23.539Z,7.97
2023-02-17T04:01:51.363Z,8.02
2023-02-17T04:04:19.384Z,8.05
2023-02-17T04:06:47.217Z,8.10
2023-02-17T04:09:15.000Z,8.12
2023-02-17T04:11:44.210Z,8.12
2023-02-17T04:14:12.046Z,8.10
2023-02-17T04:16:40.399Z,8.07
2023-02-17T04:19:08.633Z,8.05
2023-02-17T04:21:36.516Z,8.02
2023-02-17T04:24:04.522Z,8.01
2023-02-17T04:26:32.427Z,8.00
2023-02-17T04:29:00.266Z,8.01
2023-02-17T04:31:29.222Z,8.02
2023-02-17T04:33:57.208Z,8.02
2023-02-17T04:36:25.086Z,8.05
2023-02-17T04:38:52.942Z,8.03
2023-02-17T04:41:20.685Z,8.03
2023-02-17T04:43:48.541Z,8.03
2023-02-17T04:46:16.324Z,8.03
2023-02-17T04:48:44.166Z,8.02
2023-02-17T04:51:11.926Z,8.04
2023-02-17T04:53:39.782Z,8.02
2023-02-17T04:56:08.243Z,8.02
2023-02-17T04:58:36.304Z,8.03
2023-02-17T05:01:04.046Z,8.06
2023-02-17T05:03:31.812Z,8.03
2023-02-17T05:05:59.646Z,8.03
2023-02-17T05:08:27.593Z,8.04
2023-02-17T05:10:55.393Z,8.06
2023-02-17T05:13:23.242Z,8.08
2023-02-17T05:15:51.150Z,8.06
2023-02-17T05:18:18.961Z,8.07
2023-02-17T05:20:46.810Z,8.06
2023-02-17T05:23:15.512Z,8.05
2023-02-17T05:25:43.263Z,8.05
2023-02-17T05:28:11.171Z,8.06
2023-02-17T05:30:39.009Z,8.04
2023-02-17T05:33:06.803Z,8.06
2023-02-17T05:35:36.452Z,8.05
2023-02-17T05:38:04.291Z,8.09
2023-02-17T05:40:32.058Z,8.12
2023-02-17T05:42:59.900Z,8.11
2023-02-17T05:45:27.685Z,8.13
2023-02-17T05:47:55.476Z,8.12
2023-02-17T05:50:23.326Z,8.13
2023-02-17T05:52:51.155Z,8.14
2023-02-17T05:55:19.035Z,8.13
2023-02-17T05:57:46.814Z,8.15
2023-02-17T06:00:15.365Z,8.19
2023-02-17T06:02:43.287Z,8.22
2023-02-17T06:05:11.337Z,8.27
2023-02-17T06:07:39.239Z,8.30
2023-02-17T06:10:07.720Z,8.30
2023-02-17T06:12:35.641Z,8.29
2023-02-17T06:15:03.519Z,8.28
2023-02-17T06:17:31.544Z,8.25
2023-02-17T06:19:59.356Z,8.24
2023-02-17T06:22:27.183Z,8.23
2023-02-17T06:24:54.996Z,8.22
2023-02-17T06:27:22.853Z,8.23
2023-02-17T06:29:50.748Z,8.28
2023-02-17T06:32:18.586Z,8.30
2023-02-17T06:34:46.332Z,8.30
2023-02-17T06:37:14.092Z,8.30
2023-02-17T06:39:41.859Z,8.31
2023-02-17T06:42:09.662Z,8.32
2023-02-17T06:44:37.500Z,8.35
2023-02-17T06:47:05.576Z,8.39
2023-02-17T06:49:33.281Z,8.41
2023-02-17T06:52:01.048Z,8.43
2023-02-17T06:54:28.868Z,8.47
2023-02-17T06:56:56.784Z,8.54
2023-02-17T06:59:24.660Z,8.62
2023-02-17T07:01:52.497Z,8.65
2023-02-17T07:04:20.278Z,8.68
2023-02-17T07:06:48.163Z,8.73
2023-02-17T07:09:15.933Z,8.77
2023-02-17T07:11:45.721Z,8.81
2023-02-17T07:14:13.530Z,8.83
2023-02-17T07:16:41.487Z,8.86
2023-02-17T07:19:09.238Z,8.88
2023-02-17T07:21:36.992Z,8.90
2023-02-17T07:24:04.940Z,8.92
2023-02-17T07:26:36.511Z,8.97
2023-02-17T07:29:05.294Z,9.31
2023-02-17T07:31:33.444Z,9.48
2023-02-17T07:34:02.199Z,9.70
2023-02-17T07:36:30.149Z,9.87
2023-02-17T07:38:58.123Z,10.04
2023-02-17T07:41:29.697Z,10.18
2023-02-17T07:43:58.147Z,10.26
2023-02-17T07:46:26.194Z,10.26
2023-02-17T07:48:54.055Z,10.16
2023-02-17T07:51:22.846Z,10.11
2023-02-17T07:53:50.938Z,10.07
2023-02-17T07:56:21.002Z,10.03
2023-02-17T07:58:49.209Z,10.02
2023-02-17T08:01:22.264Z,10.02
2023-02-17T08:03:50.222Z,10.01
2023-02-17T08:06:20.186Z,10.01
2023-02-17T08:09:06.700Z,10.02
2023-02-17T08:11:53.124Z,10.01
2023-02-17T08:14:24.707Z,10.01
2023-02-17T08:16:52.638Z,10.04
2023-02-17T08:19:20.489Z,10.06
2023-02-17T08:21:48.411Z,10.08
2023-02-17T08:24:17.438Z,10.11
2023-02-17T08:26:45.287Z,10.15
2023-02-17T08:29:13.103Z,10.19
2023-02-17T08:31:41.081Z,10.25
2023-02-17T08:34:09.884Z,10.30
2023-02-17T08:36:40.492Z,10.41
2023-02-17T08:39:12.368Z,10.47
2023-02-17T08:41:40.531Z,10.52
2023-02-17T08:44:13.501Z,10.55
2023-02-17T08:46:41.414Z,10.61
2023-02-17T08:49:09.285Z,10.63
2023-02-17T08:51:37.282Z,10.65
2023-02-17T08:54:05.806Z,10.66
2023-02-17T08:56:33.684Z,10.69
2023-02-17T08:59:01.603Z,10.73
2023-02-17T09:01:29.447Z,10.79
2023-02-17T09:03:58.354Z,10.88
2023-02-17T09:06:26.434Z,11.00
2023-02-17T09:08:54.290Z,11.16
2023-02-17T09:11:22.037Z,11.46
2023-02-17T09:13:49.930Z,11.69
2023-02-17T09:16:20.084Z,11.85
2023-02-17T09:18:47.998Z,12.02
2023-02-17T09:21:15.812Z,12.01
2023-02-17T09:23:43.722Z,11.94
2023-02-17T09:26:12.687Z,11.89
2023-02-17T09:28:40.628Z,11.83
2023-02-17T09:31:19.467Z,11.82
2023-02-17T09:33:48.936Z,11.83
2023-02-17T09:36:19.643Z,11.96
2023-02-17T09:38:47.466Z,12.04
2023-02-17T09:41:48.430Z,12.07
2023-02-17T09:44:23.518Z,12.07
2023-02-17T09:47:11.060Z,12.07
2023-02-17T09:49:41.691Z,12.21
2023-02-17T09:52:50.253Z,12.31
2023-02-17T09:55:18.665Z,12.50
2023-02-17T09:57:54.103Z,12.78
2023-02-17T10:00:30.831Z,13.13
2023-02-17T10:03:12.599Z,13.35
2023-02-17T10:06:02.973Z,13.46
2023-02-17T10:08:36.626Z,13.59
2023-02-17T10:11:09.772Z,13.65
2023-02-17T10:13:37.580Z,13.64
2023-02-17T10:16:11.379Z,13.52
2023-02-17T10:18:42.920Z,13.38
2023-02-17T10:21:20.755Z,13.22
2023-02-17T10:23:48.899Z,13.14
2023-02-17T10:26:31.895Z,13.08
2023-02-17T10:29:06.001Z,13.05
2023-02-17T10:31:47.801Z,12.98
2023-02-17T10:34:24.642Z,12.88
2023-02-17T10:37:02.139Z,12.82
2023-02-17T10:39:59.751Z,12.71
2023-02-17T10:42:30.721Z,12.79
2023-02-17T10:45:04.747Z,12.84
2023-02-17T10:47:32.659Z,12.91
2023-02-17T10:50:02.434Z,12.95
2023-02-17T10:52:48.786Z,13.11
2023-02-17T10:55:51.033Z,13.35
2023-02-17T10:58:23.521Z,13.45
2023-02-17T11:00:54.560Z,13.33
2023-02-17T11:03:23.356Z,13.34
2023-02-17T11:06:01.869Z,13.33
2023-02-17T11:08:32.512Z,13.44
2023-02-17T11:11:02.140Z,13.51
2023-02-17T11:13:41.622Z,13.59
2023-02-17T11:16:27.481Z,13.61
2023-02-17T11:18:55.462Z,13.57
2023-02-17T11:21:23.377Z,13.57
2023-02-17T11:24:00.794Z,13.69
2023-02-17T11:26:33.183Z,14.11
2023-02-17T11:29:20.081Z,14.64
2023-02-17T11:32:02.192Z,15.03
2023-02-17T11:34:31.574Z,14.86
2023-02-17T11:37:20.723Z,14.84
2023-02-17T11:39:50.461Z,14.78
2023-02-17T11:42:29.430Z,14.77
2023-02-17T11:44:59.020Z,14.85
2023-02-17T11:47:50.966Z,14.79
2023-02-17T11:50:35.318Z,14.72
2023-02-17T11:53:21.251Z,14.54
2023-02-17T11:56:00.705Z,14.38
2023-02-17T11:58:34.204Z,14.25
2023-02-17T12:01:37.000Z,14.17
2023-02-17T12:04:30.950Z,14.05
2023-02-17T12:07:07.978Z,13.94
2023-02-17T12:09:43.284Z,13.88
2023-02-17T12:12:35.396Z,13.86
2023-02-17T12:15:23.365Z,13.79
2023-02-17T12:18:10.065Z,13.77
2023-02-17T12:20:47.028Z,13.69
2023-02-17T12:23:42.240Z,13.61
2023-02-17T12:26:36.219Z,13.50
2023-02-17T12:29:34.088Z,13.42
2023-02-17T12:32:12.368Z,13.31
2023-02-17T12:34:54.026Z,13.22
2023-02-17T12:37:36.276Z,13.16
2023-02-17T12:40:32.264Z,13.16
2023-02-17T12:43:10.127Z,13.22
2023-02-17T12:45:42.776Z,13.32
2023-02-17T12:48:21.656Z,13.33
2023-02-17T12:51:13.938Z,13.27
2023-02-17T12:53:46.253Z,13.25
2023-02-17T12:56:52.148Z,13.29
2023-02-17T12:59:23.131Z,13.30
2023-02-17T13:02:07.503Z,13.36
2023-02-17T13:04:35.567Z,13.46
2023-02-17T13:07:41.791Z,13.54
2023-02-17T13:10:38.755Z,13.60
2023-02-17T13:13:29.077Z,13.51
2023-02-17T13:16:14.164Z,13.56
2023-02-17T13:18:43.390Z,13.54
2023-02-17T13:21:26.130Z,13.51
2023-02-17T13:24:08.804Z,13.44
2023-02-17T13:26:46.285Z,13.44
2023-02-17T13:29:25.982Z,13.42
2023-02-17T13:31:58.723Z,13.39
2023-02-17T13:34:37.601Z,13.39
2023-02-17T13:37:21.276Z,13.40
2023-02-17T13:39:49.077Z,13.42
2023-02-17T13:42:41.898Z,13.47
2023-02-17T13:45:18.729Z,13.47
2023-02-17T13:47:47.072Z,13.50
2023-02-17T13:50:31.316Z,13.52
2023-02-17T13:52:59.299Z,13.51
2023-02-17T13:55:27.210Z,13.50
2023-02-17T13:57:56.400Z,13.50
2023-02-17T14:00:25.558Z,13.47
2023-02-17T14:02:54.395Z,13.45
2023-02-17T14:05:38.497Z,13.43
2023-02-17T14:08:25.505Z,13.45
2023-02-17T14:10:53.383Z,13.45
2023-02-17T14:13:21.170Z,13.47
2023-02-17T14:15:57.148Z,13.47
2023-02-17T14:18:44.094Z,13.47
2023-02-17T14:21:13.828Z,13.51
2023-02-17T14:23:59.751Z,13.52
2023-02-17T14:26:49.133Z,13.51
2023-02-17T14:29:17.010Z,13.50
2023-02-17T14:31:46.129Z,13.43
2023-02-17T14:34:30.964Z,13.42
2023-02-17T14:37:17.425Z,13.41
2023-02-17T14:39:45.201Z,13.42
2023-02-17T14:42:12.983Z,13.40
2023-02-17T14:44:41.061Z,13.41
2023-02-17T14:47:08.914Z,13.42
2023-02-17T14:49:36.664Z,13.42
2023-02-17T14:52:21.481Z,13.43
2023-02-17T14:54:49.498Z,13.41
2023-02-17T14:57:17.569Z,13.41
2023-02-17T14:59:45.453Z,13.38
2023-02-17T15:02:18.050Z,13.37
2023-02-17T15:04:45.859Z,13.39
2023-02-17T15:07:15.584Z,13.33
2023-02-17T15:09:43.606Z,13.28
2023-02-17T15:12:16.779Z,13.27
2023-02-17T15:14:44.756Z,13.21
2023-02-17T15:17:12.621Z,13.17
2023-02-17T15:19:40.518Z,13.15
2023-02-17T15:22:08.370Z,13.16
2023-02-17T15:24:36.160Z,13.16
2023-02-17T15:27:04.465Z,13.19
2023-02-17T15:29:32.427Z,13.17
2023-02-17T15:32:04.754Z,13.18
2023-02-17T15:34:33.631Z,13.18
2023-02-17T15:37:01.713Z,13.15
2023-02-17T15:39:29.720Z,13.06
2023-02-17T15:41:57.666Z,13.03
2023-02-17T15:44:28.540Z,13.01
2023-02-17T15:46:56.664Z,13.01
2023-02-17T15:49:24.581Z,13.01
2023-02-17T15:51:52.677Z,12.99
2023-02-17T15:54:20.749Z,12.97
2023-02-17T15:56:50.665Z,12.96
2023-02-17T15:59:23.550Z,12.93
2023-02-17T16:01:51.944Z,12.92
2023-02-17T16:04:19.801Z,12.91
2023-02-17T16:06:47.622Z,12.91
2023-02-17T16:09:15.594Z,12.91
2023-02-17T16:11:53.392Z,12.89
2023-02-17T16:14:37.238Z,12.88
2023-02-17T16:17:05.225Z,12.85
2023-02-17T16:19:33.638Z,12.79
2023-02-17T16:22:01.448Z,12.73
2023-02-17T16:24:29.191Z,12.69
2023-02-17T16:26:57.545Z,12.65
2023-02-17T16:29:25.256Z,12.59
2023-02-17T16:31:53.716Z,12.54
2023-02-17T16:34:23.299Z,12.51
2023-02-17T16:36:52.727Z,12.49
2023-02-17T16:39:21.406Z,12.48
2023-02-17T16:41:50.429Z,12.45
2023-02-17T16:44:19.153Z,12.42
2023-02-17T16:46:56.779Z,12.38
2023-02-17T16:49:35.201Z,12.34
2023-02-17T16:52:04.538Z,12.31
2023-02-17T16:54:35.160Z,12.30
2023-02-17T16:57:03.418Z,12.28
2023-02-17T16:59:31.223Z,12.25
2023-02-17T17:01:59.385Z,12.20
2023-02-17T17:04:27.160Z,12.17
2023-02-17T17:06:55.220Z,12.09
2023-02-17T17:09:24.438Z,12.04
2023-02-17T17:11:52.389Z,11.96
2023-02-17T17:14:21.766Z,11.95
2023-02-17T17:16:55.577Z,11.93
2023-02-17T17:19:23.578Z,11.87
2023-02-17T17:21:51.401Z,11.83
2023-02-17T17:24:19.397Z,11.79
2023-02-17T17:26:47.955Z,11.73
2023-02-17T17:29:17.176Z,11.68
2023-02-17T17:31:45.190Z,11.63
2023-02-17T17:34:13.118Z,11.58
2023-02-17T17:36:41.704Z,11.56
2023-02-17T17:39:12.763Z,11.54
2023-02-17T17:41:40.608Z,11.50
2023-02-17T17:44:10.433Z,11.47
2023-02-17T17:46:38.585Z,11.42
2023-02-17T17:49:07.298Z,11.36
2023-02-17T17:51:36.012Z,11.34
2023-02-17T17:54:04.207Z,11.31
2023-02-17T17:56:34.010Z,11.29
2023-02-17T17:59:02.657Z,11.24
2023-02-17T18:01:30.443Z,11.18
2023-02-17T18:04:00.650Z,11.14
2023-02-17T18:06:29.822Z,11.09
2023-02-17T18:09:00.503Z,11.05
2023-02-17T18:11:28.558Z,11.02
2023-02-17T18:13:57.724Z,10.98
2023-02-17T18:16:25.848Z,10.92
2023-02-17T18:18:53.704Z,10.87
2023-02-17T18:21:21.541Z,10.83
2023-02-17T18:23:49.667Z,10.84
2023-02-17T18:26:17.897Z,10.81
2023-02-17T18:28:46.732Z,10.83
2023-02-17T18:31:15.335Z,10.86
2023-02-17T18:33:43.328Z,10.90
2023-02-17T18:36:16.454Z,10.95
2023-02-17T18:38:44.666Z,10.97
2023-02-17T18:41:26.566Z,10.99
2023-02-17T18:43:54.582Z,10.96
2023-02-17T18:46:22.448Z,10.95
2023-02-17T18:48:50.813Z,10.95
2023-02-17T18:51:20.487Z,10.93
2023-02-17T18:53:50.151Z,10.93
2023-02-17T18:56:22.948Z,10.89
2023-02-17T18:58:51.750Z,10.87
2023-02-17T19:01:21.305Z,10.86
2023-02-17T19:03:49.157Z,10.84
2023-02-17T19:06:18.285Z,10.81
2023-02-17T19:08:47.084Z,10.77
2023-02-17T19:11:15.816Z,10.70
2023-02-17T19:13:44.082Z,10.67
2023-02-17T19:16:13.595Z,10.64
2023-02-17T19:18:41.827Z,10.58
2023-02-17T19:21:09.671Z,10.52
2023-02-17T19:23:38.101Z,10.47
2023-02-17T19:26:07.998Z,10.41
2023-02-17T19:28:36.723Z,10.33
2023-02-17T19:31:08.419Z,10.30
2023-02-17T19:33:36.258Z,10.26
2023-02-17T19:36:11.240Z,10.19
2023-02-17T19:38:39.125Z,10.17
2023-02-17T19:41:08.396Z,10.12
2023-02-17T19:43:36.333Z,10.13
2023-02-17T19:46:04.523Z,10.13
2023-02-17T19:48:32.327Z,10.10
2023-02-17T19:51:04.656Z,10.13
2023-02-17T19:53:32.741Z,10.13
2023-02-17T19:56:23.019Z,10.13
2023-02-17T19:58:51.072Z,10.10
2023-02-17T20:01:23.753Z,10.10
2023-02-17T20:03:51.965Z,10.15
2023-02-17T20:06:22.935Z,10.19
2023-02-17T20:08:56.155Z,10.28
2023-02-17T20:11:30.147Z,10.34
2023-02-17T20:13:58.400Z,10.40
2023-02-17T20:16:26.508Z,10.41
2023-02-17T20:18:56.309Z,10.44
2023-02-17T20:21:26.153Z,10.42
2023-02-17T20:23:54.180Z,10.41
2023-02-17T20:26:24.022Z,10.38
2023-02-17T20:28:52.160Z,10.35
2023-02-17T20:31:20.138Z,10.33
2023-02-17T20:33:48.552Z,10.26
2023-02-17T20:36:16.589Z,10.20
2023-02-17T20:38:44.435Z,10.16
2023-02-17T20:41:15.209Z,10.11
2023-02-17T20:43:42.973Z,10.08
2023-02-17T20:46:24.024Z,10.04
2023-02-17T20:48:52.030Z,10.00
2023-02-17T20:51:20.132Z,9.92
2023-02-17T20:53:48.465Z,9.90
2023-02-17T20:56:18.900Z,9.88
2023-02-17T20:58:47.305Z,9.86
2023-02-17T21:01:15.444Z,9.84
2023-02-17T21:03:43.295Z,9.81
2023-02-17T21:06:40.646Z,9.78
2023-02-17T21:09:18.765Z,9.77
2023-02-17T21:11:46.855Z,9.73
2023-02-17T21:14:14.766Z,9.71
2023-02-17T21:16:42.754Z,9.72
2023-02-17T21:19:10.669Z,9.75
2023-02-17T21:21:38.510Z,9.75
2023-02-17T21:24:06.971Z,9.73
2023-02-17T21:26:34.954Z,9.75
2023-02-17T21:29:02.995Z,9.72
2023-02-17T21:31:30.911Z,9.73
2023-02-17T21:33:59.447Z,9.75
2023-02-17T21:36:29.170Z,9.73
2023-02-17T21:38:57.577Z,9.71
2023-02-17T21:41:26.076Z,9.70
2023-02-17T21:44:12.439Z,9.68
2023-02-17T21:46:41.510Z,9.64
2023-02-17T21:49:09.451Z,9.61
2023-02-17T21:51:38.269Z,9.57
2023-02-17T21:54:06.846Z,9.53
2023-02-17T21:56:34.738Z,9.51
2023-02-17T21:59:02.846Z,9.44
2023-02-17T22:01:30.845Z,9.44
2023-02-17T22:03:58.908Z,9.46
2023-02-17T22:06:31.434Z,9.48
2023-02-17T22:08:59.394Z,9.53
2023-02-17T22:11:34.189Z,9.58
2023-02-17T22:14:03.683Z,9.61
2023-02-17T22:16:35.912Z,9.66
2023-02-17T22:19:04.055Z,9.69
2023-02-17T22:21:31.824Z,9.73
2023-02-17T22:24:00.520Z,9.77
2023-02-17T22:26:28.814Z,9.79
2023-02-17T22:28:56.884Z,9.83
2023-02-17T22:31:26.627Z,9.85
2023-02-17T22:33:54.680Z,9.87
2023-02-17T22:36:23.814Z,9.92
2023-02-17T22:38:52.027Z,9.92
2023-02-17T22:41:21.409Z,9.94
2023-02-17T22:43:49.543Z,9.97
2023-02-17T22:46:19.261Z,9.99
2023-02-17T22:48:47.988Z,10.02
2023-02-17T22:51:17.869Z,10.05
2023-02-17T22:53:45.813Z,10.05
2023-02-17T22:56:13.845Z,10.09
2023-02-17T22:58:41.636Z,10.15
2023-02-17T23:01:10.510Z,10.19
2023-02-17T23:03:38.545Z,10.27
2023-02-17T23:06:12.162Z,10.31
2023-02-17T23:08:40.038Z,10.34
2023-02-17T23:11:08.840Z,10.35
2023-02-17T23:13:36.943Z,10.37
2023-02-17T23:16:04.885Z,10.38
2023-02-17T23:18:33.274Z,10.41
2023-02-17T23:21:01.298Z,10.45
2023-02-17T23:23:29.061Z,10.47
2023-02-17T23:25:57.039Z,10.48
2023-02-17T23:28:25.718Z,10.52
2023-02-17T23:30:53.908Z,10.54
2023-02-17T23:33:23.193Z,10.53
2023-02-17T23:35:51.102Z,10.51
2023-02-17T23:38:21.001Z,10.50
2023-02-17T23:40:52.858Z,10.50
2023-02-17T23:43:20.988Z,10.47
2023-02-17T23:45:48.792Z,10.47
2023-02-17T23:48:16.935Z,10.49
2023-02-17T23:50:44.824Z,10.50
2023-02-17T23:53:12.718Z,10.52
2023-02-17T23:55:40.668Z,10.53
2023-02-17T23:58:08.443Z,10.56
